createdAt,value
2018-12-20T00:00:42.167Z,50.17
2018-12-20T00:03:10.327Z,47.53
2018-12-20T00:05:38.514Z,50.07
2018-12-20T00:08:06.797Z,47.23
2018-12-20T00:10:35.184Z,52.43
2018-12-20T00:13:03.391Z,46.60
2018-12-20T00:15:34.702Z,45.20
2018-12-20T00:18:03.896Z,46.50
2018-12-20T00:20:32.061Z,45.37
2018-12-20T00:23:00.751Z,48.27
2018-12-20T00:25:30.168Z,39.97
2018-12-20T00:28:00.332Z,44.30
2018-12-20T00:30:28.513Z,39.17
2018-12-20T00:32:57.746Z,39.97
2018-12-20T00:35:26.806Z,44.43
2018-12-20T00:37:55.065Z,36.37
2018-12-20T00:40:23.393Z,36.03
2018-12-20T00:42:51.698Z,40.37
2018-12-20T00:45:20.342Z,44.10
2018-12-20T00:47:50.676Z,44.80
2018-12-20T00:50:19.007Z,47.00
2018-12-20T00:52:47.232Z,33.83
2018-12-20T00:55:15.589Z,37.17
2018-12-20T00:57:43.831Z,36.70
2018-12-20T01:00:12.204Z,37.47
2018-12-20T01:02:41.357Z,34.90
2018-12-20T01:05:09.794Z,37.10
2018-12-20T01:07:38.030Z,40.80
2018-12-20T01:10:06.959Z,39.30
2018-12-20T01:12:35.203Z,42.37
2018-12-20T01:15:05.169Z,40.23
2018-12-20T01:17:38.709Z,41.20
2018-12-20T01:20:09.139Z,42.43
2018-12-20T01:22:37.644Z,49.33
2018-12-20T01:25:06.310Z,57.10
2018-12-20T01:27:35.496Z,55.93
2018-12-20T01:30:06.294Z,52.13
2018-12-20T01:32:34.691Z,62.37
2018-12-20T01:35:03.216Z,62.03
2018-12-20T01:37:31.588Z,65.00
2018-12-20T01:40:00.493Z,55.37
2018-12-20T01:42:29.057Z,91.50
2018-12-20T01:44:57.430Z,70.43
2018-12-20T01:47:26.478Z,76.47
2018-12-20T01:49:54.833Z,81.83
2018-12-20T01:52:23.030Z,67.07
2018-12-20T01:54:51.310Z,72.33
2018-12-20T01:57:19.623Z,72.60
2018-12-20T01:59:49.861Z,58.80
2018-12-20T02:02:18.234Z,64.20
2018-12-20T02:04:46.520Z,103.77
2018-12-20T02:07:15.006Z,63.90
2018-12-20T02:09:43.469Z,87.60
2018-12-20T02:12:11.722Z,57.47
2018-12-20T02:14:39.988Z,54.37
2018-12-20T02:17:08.584Z,51.10
2018-12-20T02:19:39.781Z,50.73
2018-12-20T02:22:08.035Z,69.60
2018-12-20T02:24:37.226Z,57.80
2018-12-20T02:27:05.584Z,52.20
2018-12-20T02:29:34.168Z,66.80
2018-12-20T02:32:02.489Z,62.33
2018-12-20T02:34:31.775Z,70.60
2018-12-20T02:36:59.977Z,53.53
2018-12-20T02:39:29.052Z,60.87
2018-12-20T02:41:57.364Z,46.20
2018-12-20T02:44:25.543Z,43.60
2018-12-20T02:46:53.774Z,53.27
2018-12-20T02:49:22.046Z,56.63
2018-12-20T02:51:50.507Z,67.63
2018-12-20T02:54:18.901Z,65.77
2018-12-20T02:56:47.319Z,54.57
2018-12-20T02:59:15.723Z,56.93
2018-12-20T03:01:45.282Z,45.13
2018-12-20T03:04:13.588Z,41.83
2018-12-20T03:06:41.750Z,48.33
2018-12-20T03:09:10.064Z,42.27
2018-12-20T03:11:39.193Z,44.00
2018-12-20T03:14:07.658Z,39.90
2018-12-20T03:16:35.916Z,52.40
2018-12-20T03:19:04.522Z,59.27
2018-12-20T03:21:33.424Z,55.37
2018-12-20T03:24:01.719Z,44.73
2018-12-20T03:26:29.904Z,58.87
2018-12-20T03:28:58.073Z,58.60
2018-12-20T03:31:27.297Z,54.67
2018-12-20T03:33:57.433Z,58.53
2018-12-20T03:36:25.803Z,63.00
2018-12-20T03:38:54.009Z,48.40
2018-12-20T03:41:22.214Z,46.60
2018-12-20T03:43:50.463Z,52.27
2018-12-20T03:46:18.653Z,45.40
2018-12-20T03:48:46.992Z,52.27
2018-12-20T03:51:15.216Z,47.07
2018-12-20T03:53:43.516Z,66.13
2018-12-20T03:56:18.582Z,52.77
2018-12-20T03:58:47.053Z,55.23
2018-12-20T04:01:15.770Z,52.07
2018-12-20T04:03:44.024Z,53.30
2018-12-20T04:06:12.339Z,52.47
2018-12-20T04:08:40.630Z,53.83
2018-12-20T04:11:08.813Z,55.43
2018-12-20T04:13:36.981Z,51.73
2018-12-20T04:16:05.536Z,49.80
2018-12-20T04:18:33.765Z,65.60
2018-12-20T04:21:02.166Z,63.27
2018-12-20T04:23:30.494Z,59.13
2018-12-20T04:25:58.632Z,57.20
2018-12-20T04:28:26.976Z,60.57
2018-12-20T04:30:55.159Z,59.13
2018-12-20T04:33:23.428Z,58.83
2018-12-20T04:35:51.976Z,52.87
2018-12-20T04:38:20.263Z,52.60
2018-12-20T04:40:48.518Z,58.57
2018-12-20T04:43:17.077Z,55.20
2018-12-20T04:45:46.820Z,53.20
2018-12-20T04:48:16.300Z,48.30
2018-12-20T04:50:44.729Z,50.03
2018-12-20T04:53:12.952Z,59.27
2018-12-20T04:55:41.122Z,53.67
2018-12-20T04:58:10.111Z,51.17
2018-12-20T05:00:40.559Z,51.73
2018-12-20T05:03:08.635Z,52.07
2018-12-20T05:05:37.017Z,47.40
2018-12-20T05:08:05.264Z,50.50
2018-12-20T05:10:33.420Z,54.27
2018-12-20T05:13:01.932Z,52.27
2018-12-20T05:15:30.251Z,45.67
2018-12-20T05:17:58.479Z,46.97
2018-12-20T05:20:26.770Z,48.17
2018-12-20T05:22:54.975Z,44.43
2018-12-20T05:25:23.245Z,41.63
2018-12-20T05:27:52.341Z,43.40
2018-12-20T05:30:20.773Z,36.57
2018-12-20T05:32:49.088Z,34.10
2018-12-20T05:35:17.263Z,35.03
2018-12-20T05:37:45.719Z,38.47
2018-12-20T05:40:14.199Z,38.13
2018-12-20T05:42:44.018Z,40.77
2018-12-20T05:45:12.645Z,34.90
2018-12-20T05:47:40.956Z,35.63
2018-12-20T05:50:09.392Z,33.13
2018-12-20T05:52:37.725Z,35.83
2018-12-20T05:55:07.034Z,34.70
2018-12-20T05:57:35.204Z,39.20
2018-12-20T06:00:04.113Z,34.13
2018-12-20T06:02:33.220Z,37.20
2018-12-20T06:05:03.740Z,38.33
2018-12-20T06:07:32.206Z,42.17
2018-12-20T06:10:00.528Z,46.73
2018-12-20T06:12:28.745Z,45.20
2018-12-20T06:14:57.059Z,45.13
2018-12-20T06:17:25.293Z,39.53
2018-12-20T06:19:53.730Z,37.77
2018-12-20T06:22:21.993Z,28.53
2018-12-20T06:24:50.176Z,23.00
2018-12-20T06:27:20.183Z,27.57
2018-12-20T06:29:48.357Z,34.73
2018-12-20T06:32:16.683Z,33.30
2018-12-20T06:34:44.891Z,30.50
2018-12-20T06:37:13.055Z,30.93
2018-12-20T06:39:42.248Z,32.03
2018-12-20T06:42:12.283Z,29.07
2018-12-20T06:44:47.572Z,30.40
2018-12-20T06:47:17.016Z,33.73
2018-12-20T06:49:45.187Z,32.03
2018-12-20T06:52:13.469Z,41.83
2018-12-20T06:54:41.696Z,36.60
2018-12-20T06:57:09.866Z,32.57
2018-12-20T06:59:38.048Z,31.70
2018-12-20T07:02:06.398Z,33.97
2018-12-20T07:04:34.527Z,34.37
2018-12-20T07:07:03.675Z,37.50
2018-12-20T07:09:31.922Z,35.47
2018-12-20T07:12:00.098Z,33.97
2018-12-20T07:14:28.268Z,33.50
2018-12-20T07:16:56.437Z,35.40
2018-12-20T07:19:24.696Z,32.90
2018-12-20T07:21:52.882Z,39.33
2018-12-20T07:24:21.125Z,34.80
2018-12-20T07:26:49.646Z,36.27
2018-12-20T07:29:17.821Z,34.50
2018-12-20T07:31:46.172Z,30.70
2018-12-20T07:34:16.205Z,29.20
2018-12-20T07:36:45.343Z,35.53
2018-12-20T07:39:14.017Z,30.50
2018-12-20T07:41:44.186Z,26.83
2018-12-20T07:44:13.208Z,30.50
2018-12-20T07:46:41.473Z,31.23
2018-12-20T07:49:09.941Z,27.30
2018-12-20T07:51:38.488Z,25.40
2018-12-20T07:54:06.623Z,20.80
2018-12-20T07:56:34.888Z,21.83
2018-12-20T07:59:03.117Z,27.47
2018-12-20T08:01:31.279Z,24.30
2018-12-20T08:03:59.435Z,24.20
2018-12-20T08:06:29.597Z,27.70
2018-12-20T08:08:57.969Z,28.20
2018-12-20T08:11:26.144Z,21.30
2018-12-20T08:13:54.322Z,26.53
2018-12-20T08:16:22.533Z,28.37
2018-12-20T08:18:51.830Z,26.50
2018-12-20T08:21:20.969Z,30.93
2018-12-20T08:23:49.132Z,28.87
2018-12-20T08:26:17.372Z,27.03
2018-12-20T08:28:45.531Z,28.77
2018-12-20T08:31:13.735Z,28.87
2018-12-20T08:33:41.999Z,26.90
2018-12-20T08:36:10.226Z,22.03
2018-12-20T08:38:38.468Z,24.07
2018-12-20T08:41:09.116Z,22.57
2018-12-20T08:43:37.941Z,17.17
2018-12-20T08:46:06.421Z,21.27
2018-12-20T08:48:34.865Z,19.63
2018-12-20T08:51:03.441Z,19.27
2018-12-20T08:53:31.624Z,20.27
2018-12-20T08:55:59.867Z,18.80
2018-12-20T08:58:28.045Z,19.90
2018-12-20T09:00:56.240Z,16.87
2018-12-20T09:03:24.405Z,17.10
2018-12-20T09:05:52.621Z,12.77
2018-12-20T09:08:20.758Z,12.20
2018-12-20T09:10:48.950Z,14.83
2018-12-20T09:13:17.124Z,14.87
2018-12-20T09:15:45.313Z,14.93
2018-12-20T09:18:13.510Z,16.63
2018-12-20T09:20:41.723Z,14.83
2018-12-20T09:23:09.908Z,16.10
2018-12-20T09:25:38.165Z,12.73
2018-12-20T09:28:06.345Z,14.10
2018-12-20T09:30:34.505Z,15.23
2018-12-20T09:33:03.034Z,15.17
2018-12-20T09:35:31.292Z,16.07
2018-12-20T09:38:01.116Z,15.73
2018-12-20T09:40:30.100Z,16.30
2018-12-20T09:42:58.263Z,16.27
2018-12-20T09:45:26.455Z,14.43
2018-12-20T09:47:58.867Z,17.63
2018-12-20T09:50:28.066Z,14.17
2018-12-20T09:52:56.877Z,14.93
2018-12-20T09:55:25.048Z,18.10
2018-12-20T09:57:53.289Z,15.60
2018-12-20T10:00:21.519Z,16.40
2018-12-20T10:02:50.542Z,14.50
2018-12-20T10:05:18.726Z,16.87
2018-12-20T10:07:47.488Z,12.57
2018-12-20T10:10:15.661Z,13.43
2018-12-20T10:12:44.217Z,13.67
2018-12-20T10:15:12.438Z,12.77
2018-12-20T10:17:40.699Z,13.47
2018-12-20T10:20:11.770Z,13.93
2018-12-20T10:22:39.936Z,10.77
2018-12-20T10:25:09.068Z,14.53
2018-12-20T10:27:37.280Z,14.90
2018-12-20T10:30:06.324Z,13.57
2018-12-20T10:32:34.944Z,12.97
2018-12-20T10:35:03.298Z,15.67
2018-12-20T10:37:31.536Z,13.40
2018-12-20T10:39:59.709Z,13.93
2018-12-20T10:42:27.885Z,14.73
2018-12-20T10:44:56.636Z,11.90
2018-12-20T10:47:29.244Z,13.43
2018-12-20T10:49:56.701Z,15.00
2018-12-20T10:52:24.857Z,10.57
2018-12-20T10:54:53.081Z,11.70
2018-12-20T10:57:21.240Z,10.70
2018-12-20T10:59:49.402Z,11.97
2018-12-20T11:02:23.125Z,12.53
2018-12-20T11:04:56.683Z,10.10
2018-12-20T11:07:31.247Z,10.47
2018-12-20T11:10:04.913Z,11.70
2018-12-20T11:12:38.692Z,10.43
2018-12-20T11:15:07.193Z,12.97
2018-12-20T11:17:37.493Z,11.83
2018-12-20T11:20:05.741Z,10.17
2018-12-20T11:22:34.190Z,12.90
2018-12-20T11:25:02.659Z,9.00
2018-12-20T11:27:30.893Z,11.33
2018-12-20T11:29:59.072Z,12.27
2018-12-20T11:32:27.303Z,10.77
2018-12-20T11:34:55.488Z,14.23
2018-12-20T11:37:23.634Z,13.63
2018-12-20T11:39:59.446Z,10.50
2018-12-20T11:42:22.907Z,9.67
2018-12-20T11:44:51.061Z,11.40
2018-12-20T11:47:24.577Z,8.43
2018-12-20T11:49:52.752Z,8.70
2018-12-20T11:52:20.960Z,6.67
2018-12-20T11:54:49.102Z,9.23
2018-12-20T11:57:17.251Z,9.17
2018-12-20T11:59:45.500Z,7.83
2018-12-20T12:02:13.647Z,8.00
2018-12-20T12:04:41.788Z,6.90
2018-12-20T12:07:10.046Z,9.47
2018-12-20T12:09:38.216Z,7.97
2018-12-20T12:12:11.541Z,5.70
2018-12-20T12:14:39.770Z,7.50
2018-12-20T12:17:09.203Z,6.83
2018-12-20T12:19:37.353Z,5.03
2018-12-20T12:22:05.591Z,7.53
2018-12-20T12:24:33.800Z,3.93
2018-12-20T12:27:02.037Z,5.30
2018-12-20T12:29:30.246Z,3.70
2018-12-20T12:31:58.465Z,4.00
2018-12-20T12:34:26.660Z,2.90
2018-12-20T12:36:55.445Z,5.13
2018-12-20T12:39:23.634Z,3.13
2018-12-20T12:41:51.773Z,2.97
2018-12-20T12:44:19.940Z,2.07
2018-12-20T12:46:48.216Z,1.97
2018-12-20T12:49:16.571Z,1.77
2018-12-20T12:51:52.898Z,2.83
2018-12-20T12:54:15.639Z,3.27
2018-12-20T12:56:43.936Z,2.83
2018-12-20T12:59:12.129Z,1.60
2018-12-20T13:01:40.317Z,1.83
2018-12-20T13:04:08.584Z,2.93
2018-12-20T13:06:36.842Z,5.37
2018-12-20T13:09:06.600Z,2.73
2018-12-20T13:11:34.880Z,1.80
2018-12-20T13:14:03.032Z,2.33
2018-12-20T13:16:31.375Z,2.27
2018-12-20T13:18:59.702Z,3.83
2018-12-20T13:21:27.983Z,2.13
2018-12-20T13:23:56.276Z,2.07
2018-12-20T13:26:24.558Z,2.00
2018-12-20T13:28:52.782Z,2.43
2018-12-20T13:31:20.959Z,4.80
2018-12-20T13:33:49.108Z,1.77
2018-12-20T13:36:17.543Z,3.27
2018-12-20T13:38:45.729Z,3.30
2018-12-20T13:41:13.896Z,2.87
2018-12-20T13:43:42.287Z,3.00
2018-12-20T13:46:10.460Z,2.73
2018-12-20T13:48:38.632Z,2.30
2018-12-20T13:51:06.886Z,3.33
2018-12-20T13:53:35.069Z,1.87
2018-12-20T13:56:03.318Z,2.40
2018-12-20T13:58:31.548Z,2.33
2018-12-20T14:01:00.076Z,3.37
2018-12-20T14:03:28.305Z,2.87
2018-12-20T14:05:56.558Z,2.43
2018-12-20T14:08:24.721Z,4.20
2018-12-20T14:10:52.863Z,2.40
2018-12-20T14:13:21.068Z,5.30
2018-12-20T14:15:49.222Z,3.30
2018-12-20T14:18:19.307Z,4.10
2018-12-20T14:20:47.435Z,6.10
2018-12-20T14:23:15.612Z,3.97
2018-12-20T14:25:43.902Z,2.60
2018-12-20T14:28:12.176Z,3.20
2018-12-20T14:30:40.394Z,4.67
2018-12-20T14:33:08.593Z,2.40
2018-12-20T14:35:36.806Z,3.67
2018-12-20T14:38:04.988Z,4.07
2018-12-20T14:40:33.164Z,4.13
2018-12-20T14:43:01.358Z,5.77
2018-12-20T14:45:29.524Z,5.80
2018-12-20T14:48:00.734Z,4.73
2018-12-20T14:50:29.067Z,3.97
2018-12-20T14:52:57.372Z,6.20
2018-12-20T14:55:25.671Z,3.07
2018-12-20T14:57:53.920Z,5.47
2018-12-20T15:00:22.280Z,3.47
2018-12-20T15:02:53.597Z,3.23
2018-12-20T15:05:21.740Z,3.53
2018-12-20T15:07:50.011Z,4.37
2018-12-20T15:10:18.300Z,2.50
2018-12-20T15:12:46.466Z,4.20
2018-12-20T15:15:14.611Z,4.37
2018-12-20T15:17:46.256Z,3.73
2018-12-20T15:20:14.512Z,5.33
2018-12-20T15:22:42.762Z,2.83
2018-12-20T15:25:10.925Z,6.03
2018-12-20T15:27:39.380Z,6.37
2018-12-20T15:30:09.308Z,3.40
2018-12-20T15:32:37.536Z,5.00
2018-12-20T15:35:07.171Z,4.73
2018-12-20T15:37:35.323Z,9.27
2018-12-20T15:40:04.656Z,4.80
2018-12-20T15:42:32.805Z,5.73
2018-12-20T15:45:01.061Z,3.37
2018-12-20T15:47:29.345Z,4.10
2018-12-20T15:49:58.686Z,4.57
2018-12-20T15:52:26.835Z,4.37
2018-12-20T15:54:55.005Z,9.93
2018-12-20T15:57:23.156Z,8.30
2018-12-20T15:59:51.300Z,10.90
2018-12-20T16:02:20.509Z,4.77
2018-12-20T16:04:49.467Z,4.70
2018-12-20T16:07:17.622Z,4.07
2018-12-20T16:09:45.792Z,29.27
2018-12-20T16:12:14.573Z,57.47
2018-12-20T16:14:42.781Z,7.50
2018-12-20T16:17:11.070Z,20.83
2018-12-20T16:19:39.224Z,14.17
2018-12-20T16:22:07.461Z,23.43
2018-12-20T16:24:35.688Z,51.97
2018-12-20T16:27:03.920Z,11.67
2018-12-20T16:29:32.140Z,14.53
2018-12-20T16:32:00.300Z,9.80
2018-12-20T16:34:28.454Z,12.03
2018-12-20T16:36:56.608Z,9.03
2018-12-20T16:39:24.891Z,6.40
2018-12-20T16:41:53.193Z,4.33
2018-12-20T16:44:21.404Z,17.80
2018-12-20T16:46:49.671Z,94.53
2018-12-20T16:49:17.820Z,10.90
2018-12-20T16:51:45.995Z,4.43
2018-12-20T16:54:14.329Z,5.13
2018-12-20T16:56:42.500Z,5.13
2018-12-20T16:59:10.665Z,5.63
2018-12-20T17:01:39.145Z,5.37
2018-12-20T17:04:07.272Z,80.93
2018-12-20T17:06:35.610Z,36.57
2018-12-20T17:09:05.204Z,12.70
2018-12-20T17:11:33.471Z,11.10
2018-12-20T17:14:02.624Z,14.20
2018-12-20T17:16:30.869Z,9.63
2018-12-20T17:18:59.049Z,3.07
2018-12-20T17:21:27.362Z,4.83
2018-12-20T17:23:55.568Z,4.90
2018-12-20T17:26:23.749Z,4.73
2018-12-20T17:28:51.887Z,3.80
2018-12-20T17:31:20.183Z,4.87
2018-12-20T17:33:48.336Z,3.93
2018-12-20T17:36:16.627Z,4.37
2018-12-20T17:38:44.796Z,6.27
2018-12-20T17:41:12.971Z,6.23
2018-12-20T17:43:41.227Z,5.67
2018-12-20T17:46:09.384Z,5.30
2018-12-20T17:48:37.868Z,3.77
2018-12-20T17:51:06.024Z,5.83
2018-12-20T17:53:34.182Z,5.17
2018-12-20T17:56:02.599Z,5.20
2018-12-20T17:58:30.807Z,5.63
2018-12-20T18:00:58.991Z,6.20
2018-12-20T18:03:27.315Z,9.13
2018-12-20T18:05:55.447Z,7.70
2018-12-20T18:08:23.602Z,6.67
2018-12-20T18:10:51.751Z,9.67
2018-12-20T18:13:20.001Z,9.43
2018-12-20T18:15:48.303Z,5.73
2018-12-20T18:18:16.455Z,6.33
2018-12-20T18:20:44.620Z,29.17
2018-12-20T18:23:12.797Z,8.33
2018-12-20T18:25:41.868Z,6.07
2018-12-20T18:28:10.032Z,6.90
2018-12-20T18:30:38.183Z,8.23
2018-12-20T18:33:06.357Z,4.50
2018-12-20T18:35:35.475Z,4.63
2018-12-20T18:38:03.819Z,9.07
2018-12-20T18:40:32.041Z,6.57
2018-12-20T18:43:04.190Z,7.70
2018-12-20T18:45:32.507Z,4.53
2018-12-20T18:48:00.656Z,5.23
2018-12-20T18:50:28.893Z,5.50
2018-12-20T18:52:57.068Z,6.50
2018-12-20T18:55:25.427Z,8.07
2018-12-20T18:57:53.532Z,4.90
2018-12-20T19:00:21.703Z,6.20
2018-12-20T19:02:49.887Z,4.67
2018-12-20T19:05:18.048Z,5.73
2018-12-20T19:07:46.207Z,6.60
2018-12-20T19:10:14.355Z,7.83
2018-12-20T19:12:42.498Z,5.37
2018-12-20T19:15:10.738Z,7.27
2018-12-20T19:17:38.937Z,7.20
2018-12-20T19:20:15.949Z,9.03
2018-12-20T19:22:39.675Z,9.40
2018-12-20T19:25:08.100Z,6.03
2018-12-20T19:27:38.137Z,6.30
2018-12-20T19:30:09.539Z,7.83
2018-12-20T19:32:37.796Z,6.77
2018-12-20T19:35:07.126Z,6.23
2018-12-20T19:37:36.181Z,8.40
2018-12-20T19:40:07.701Z,9.80
2018-12-20T19:42:35.977Z,7.30
2018-12-20T19:45:05.538Z,8.60
2018-12-20T19:47:33.710Z,9.00
2018-12-20T19:50:05.079Z,6.27
2018-12-20T19:52:32.086Z,9.20
2018-12-20T19:55:00.260Z,8.30
2018-12-20T19:57:28.448Z,5.30
2018-12-20T19:59:57.122Z,10.00
2018-12-20T20:02:26.284Z,8.50
2018-12-20T20:04:54.481Z,10.07
2018-12-20T20:07:23.934Z,8.93
2018-12-20T20:09:52.392Z,9.73
2018-12-20T20:12:20.550Z,6.97
2018-12-20T20:14:49.040Z,6.30
2018-12-20T20:17:17.629Z,8.03
2018-12-20T20:19:45.928Z,8.67
2018-12-20T20:22:15.080Z,7.30
2018-12-20T20:24:44.079Z,7.77
2018-12-20T20:27:12.259Z,7.60
2018-12-20T20:29:40.450Z,7.83
2018-12-20T20:32:08.700Z,7.07
2018-12-20T20:34:36.876Z,7.47
2018-12-20T20:37:05.135Z,7.30
2018-12-20T20:39:33.387Z,8.37
2018-12-20T20:42:02.174Z,6.13
2018-12-20T20:44:30.367Z,7.00
2018-12-20T20:46:59.498Z,10.33
2018-12-20T20:49:27.656Z,8.17
2018-12-20T20:51:55.968Z,6.47
2018-12-20T20:54:24.776Z,7.97
2018-12-20T20:56:52.919Z,9.50
2018-12-20T20:59:21.185Z,5.30
2018-12-20T21:01:49.338Z,6.80
2018-12-20T21:04:17.605Z,7.17
2018-12-20T21:06:47.095Z,8.00
2018-12-20T21:09:15.617Z,6.43
2018-12-20T21:11:43.828Z,13.13
2018-12-20T21:14:12.024Z,9.37
2018-12-20T21:16:40.232Z,7.00
2018-12-20T21:19:08.879Z,6.80
2018-12-20T21:21:37.647Z,8.33
2018-12-20T21:24:06.724Z,7.37
2018-12-20T21:26:35.208Z,9.27
2018-12-20T21:29:04.584Z,9.03
2018-12-20T21:31:33.219Z,9.70
2018-12-20T21:34:01.598Z,9.37
2018-12-20T21:36:30.245Z,6.83
2018-12-20T21:38:58.641Z,8.30
2018-12-20T21:41:26.847Z,5.97
2018-12-20T21:43:55.585Z,5.73
2018-12-20T21:46:24.302Z,7.87
2018-12-20T21:48:52.488Z,5.73
2018-12-20T21:51:20.993Z,8.73
2018-12-20T21:53:54.867Z,6.43
2018-12-20T21:56:20.796Z,9.83
2018-12-20T21:58:49.347Z,7.17
2018-12-20T22:01:19.564Z,9.50
2018-12-20T22:03:47.789Z,9.37
2018-12-20T22:06:16.438Z,5.53
2018-12-20T22:08:45.096Z,11.37
2018-12-20T22:11:13.855Z,7.83
2018-12-20T22:13:43.173Z,7.80
2018-12-20T22:16:11.836Z,6.70
2018-12-20T22:18:40.493Z,8.80
2018-12-20T22:21:09.959Z,6.80
2018-12-20T22:23:38.419Z,8.07
2018-12-20T22:26:06.871Z,8.07
2018-12-20T22:28:35.236Z,5.97
2018-12-20T22:31:03.703Z,7.47
2018-12-20T22:33:33.168Z,8.90
2018-12-20T22:36:01.470Z,9.40
2018-12-20T22:38:30.206Z,6.50
2018-12-20T22:40:58.497Z,9.93
2018-12-20T22:43:27.204Z,4.93
2018-12-20T22:45:55.786Z,6.70
2018-12-20T22:48:24.498Z,7.77
2018-12-20T22:50:56.034Z,5.03
2018-12-20T22:53:23.922Z,7.33
2018-12-20T22:55:52.096Z,7.57
2018-12-20T22:58:20.672Z,6.90
2018-12-20T23:00:55.656Z,6.70
2018-12-20T23:03:23.829Z,5.97
2018-12-20T23:05:52.071Z,6.77
2018-12-20T23:08:20.386Z,7.10
2018-12-20T23:10:48.594Z,4.80
2018-12-20T23:13:16.741Z,7.60
2018-12-20T23:15:44.884Z,9.47
2018-12-20T23:18:13.225Z,8.73
2018-12-20T23:20:41.505Z,5.97
2018-12-20T23:23:09.663Z,7.77
2018-12-20T23:25:37.886Z,8.00
2018-12-20T23:28:06.136Z,8.13
2018-12-20T23:30:35.125Z,5.80
2018-12-20T23:33:03.316Z,7.00
2018-12-20T23:35:31.543Z,6.07
2018-12-20T23:37:59.729Z,6.43
2018-12-20T23:40:27.888Z,7.13
2018-12-20T23:42:56.058Z,7.63
2018-12-20T23:45:24.214Z,8.20
2018-12-20T23:47:53.274Z,7.27
2018-12-20T23:50:22.165Z,8.07
2018-12-20T23:52:50.469Z,8.60
2018-12-20T23:55:18.620Z,7.77
2018-12-20T23:57:46.759Z,6.93
